sensor_id;sensor_type;location;lat;lon;timestamp;P1;durP1;ratioP1;P2;durP2;ratioP2
54657;SDS011;56972;43.886;20.354;2022-09-12T00:01:01;17.77;;;12.52;;
54657;SDS011;56972;43.886;20.354;2022-09-12T00:03:27;16.45;;;13.82;;
54657;SDS011;56972;43.886;20.354;2022-09-12T00:05:53;22.10;;;14.60;;
54657;SDS011;56972;43.886;20.354;2022-09-12T00:08:19;15.65;;;14.05;;
54657;SDS011;56972;43.886;20.354;2022-09-12T00:10:45;16.83;;;13.88;;
54657;SDS011;56972;43.886;20.354;2022-09-12T00:13:11;18.50;;;15.30;;
54657;SDS011;56972;43.886;20.354;2022-09-12T00:15:41;18.77;;;14.77;;
54657;SDS011;56972;43.886;20.354;2022-09-12T00:18:08;19.45;;;15.55;;
54657;SDS011;56972;43.886;20.354;2022-09-12T00:20:34;20.30;;;17.92;;
54657;SDS011;56972;43.886;20.354;2022-09-12T00:23:00;20.00;;;15.93;;
54657;SDS011;56972;43.886;20.354;2022-09-12T00:25:26;22.75;;;15.40;;
54657;SDS011;56972;43.886;20.354;2022-09-12T00:27:54;20.80;;;15.30;;
54657;SDS011;56972;43.886;20.354;2022-09-12T00:30:22;23.42;;;18.08;;
54657;SDS011;56972;43.886;20.354;2022-09-12T00:32:48;26.50;;;16.17;;
54657;SDS011;56972;43.886;20.354;2022-09-12T00:35:15;23.45;;;17.27;;
54657;SDS011;56972;43.886;20.354;2022-09-12T00:37:41;20.38;;;17.58;;
54657;SDS011;56972;43.886;20.354;2022-09-12T00:40:07;21.48;;;19.20;;
54657;SDS011;56972;43.886;20.354;2022-09-12T00:42:34;19.35;;;16.77;;
54657;SDS011;56972;43.886;20.354;2022-09-12T00:45:00;27.20;;;19.30;;
54657;SDS011;56972;43.886;20.354;2022-09-12T00:47:26;22.40;;;18.05;;
54657;SDS011;56972;43.886;20.354;2022-09-12T00:52:20;24.45;;;18.95;;
54657;SDS011;56972;43.886;20.354;2022-09-12T00:55:30;24.60;;;17.90;;
54657;SDS011;56972;43.886;20.354;2022-09-12T00:57:39;23.73;;;20.02;;
54657;SDS011;56972;43.886;20.354;2022-09-12T01:00:09;24.45;;;19.67;;
54657;SDS011;56972;43.886;20.354;2022-09-12T01:02:38;23.75;;;19.83;;
54657;SDS011;56972;43.886;20.354;2022-09-12T01:05:04;17.30;;;15.45;;
54657;SDS011;56972;43.886;20.354;2022-09-12T01:07:31;20.65;;;16.48;;
54657;SDS011;56972;43.886;20.354;2022-09-12T01:09:59;19.60;;;15.45;;
54657;SDS011;56972;43.886;20.354;2022-09-12T01:12:25;19.88;;;14.93;;
54657;SDS011;56972;43.886;20.354;2022-09-12T01:14:51;21.38;;;16.25;;
54657;SDS011;56972;43.886;20.354;2022-09-12T01:17:17;18.77;;;15.70;;
54657;SDS011;56972;43.886;20.354;2022-09-12T01:20:07;22.45;;;15.82;;
54657;SDS011;56972;43.886;20.354;2022-09-12T01:22:49;22.08;;;15.45;;
54657;SDS011;56972;43.886;20.354;2022-09-12T01:43:11;20.42;;;17.15;;
54657;SDS011;56972;43.886;20.354;2022-09-12T01:48:15;22.75;;;18.15;;
54657;SDS011;56972;43.886;20.354;2022-09-12T01:50:51;25.38;;;15.98;;
54657;SDS011;56972;43.886;20.354;2022-09-12T01:53:21;17.98;;;15.90;;
54657;SDS011;56972;43.886;20.354;2022-09-12T01:58:37;17.30;;;14.88;;
54657;SDS011;56972;43.886;20.354;2022-09-12T02:01:05;17.40;;;14.73;;
54657;SDS011;56972;43.886;20.354;2022-09-12T02:03:38;24.48;;;17.35;;
54657;SDS011;56972;43.886;20.354;2022-09-12T02:06:07;23.75;;;15.15;;
54657;SDS011;56972;43.886;20.354;2022-09-12T02:08:46;21.50;;;15.52;;
54657;SDS011;56972;43.886;20.354;2022-09-12T02:11:14;19.08;;;14.82;;
54657;SDS011;56972;43.886;20.354;2022-09-12T02:13:41;19.23;;;15.30;;
54657;SDS011;56972;43.886;20.354;2022-09-12T02:16:09;19.90;;;15.48;;
54657;SDS011;56972;43.886;20.354;2022-09-12T02:18:39;17.75;;;14.68;;
54657;SDS011;56972;43.886;20.354;2022-09-12T02:21:07;19.02;;;14.45;;
54657;SDS011;56972;43.886;20.354;2022-09-12T02:23:33;18.58;;;14.50;;
54657;SDS011;56972;43.886;20.354;2022-09-12T02:26:04;17.35;;;14.40;;
54657;SDS011;56972;43.886;20.354;2022-09-12T02:28:32;15.60;;;12.98;;
54657;SDS011;56972;43.886;20.354;2022-09-12T02:33:48;20.52;;;15.30;;
54657;SDS011;56972;43.886;20.354;2022-09-12T02:38:48;17.08;;;15.27;;
54657;SDS011;56972;43.886;20.354;2022-09-12T02:41:16;25.52;;;16.63;;
54657;SDS011;56972;43.886;20.354;2022-09-12T02:43:43;22.55;;;16.40;;
54657;SDS011;56972;43.886;20.354;2022-09-12T02:46:12;19.10;;;15.10;;
54657;SDS011;56972;43.886;20.354;2022-09-12T02:48:40;20.27;;;15.60;;
54657;SDS011;56972;43.886;20.354;2022-09-12T02:51:07;18.33;;;15.68;;
54657;SDS011;56972;43.886;20.354;2022-09-12T02:53:33;18.85;;;15.25;;
54657;SDS011;56972;43.886;20.354;2022-09-12T02:56:00;17.90;;;15.75;;
54657;SDS011;56972;43.886;20.354;2022-09-12T02:58:28;20.00;;;16.10;;
54657;SDS011;56972;43.886;20.354;2022-09-12T03:01:03;22.33;;;16.90;;
54657;SDS011;56972;43.886;20.354;2022-09-12T03:03:37;20.92;;;16.77;;
54657;SDS011;56972;43.886;20.354;2022-09-12T03:08:42;15.68;;;14.07;;
54657;SDS011;56972;43.886;20.354;2022-09-12T03:13:59;22.10;;;16.85;;
54657;SDS011;56972;43.886;20.354;2022-09-12T03:16:34;27.92;;;18.50;;
54657;SDS011;56972;43.886;20.354;2022-09-12T03:19:23;22.13;;;16.58;;
54657;SDS011;56972;43.886;20.354;2022-09-12T03:22:03;16.00;;;13.13;;
54657;SDS011;56972;43.886;20.354;2022-09-12T03:24:35;17.63;;;13.38;;
54657;SDS011;56972;43.886;20.354;2022-09-12T03:27:11;25.63;;;13.93;;
54657;SDS011;56972;43.886;20.354;2022-09-12T03:29:40;24.38;;;18.23;;
54657;SDS011;56972;43.886;20.354;2022-09-12T03:32:08;21.05;;;17.10;;
54657;SDS011;56972;43.886;20.354;2022-09-12T03:34:34;26.10;;;17.13;;
54657;SDS011;56972;43.886;20.354;2022-09-12T03:37:00;23.27;;;18.30;;
54657;SDS011;56972;43.886;20.354;2022-09-12T03:39:26;22.67;;;18.50;;
54657;SDS011;56972;43.886;20.354;2022-09-12T03:41:53;24.88;;;18.80;;
54657;SDS011;56972;43.886;20.354;2022-09-12T03:44:19;32.90;;;22.60;;
54657;SDS011;56972;43.886;20.354;2022-09-12T03:46:45;22.52;;;19.38;;
54657;SDS011;56972;43.886;20.354;2022-09-12T03:49:11;26.08;;;17.60;;
54657;SDS011;56972;43.886;20.354;2022-09-12T03:51:38;19.30;;;16.38;;
54657;SDS011;56972;43.886;20.354;2022-09-12T03:54:05;20.92;;;16.50;;
54657;SDS011;56972;43.886;20.354;2022-09-12T03:56:31;21.25;;;16.42;;
54657;SDS011;56972;43.886;20.354;2022-09-12T03:58:57;18.10;;;13.43;;
54657;SDS011;56972;43.886;20.354;2022-09-12T04:01:23;19.92;;;14.77;;
54657;SDS011;56972;43.886;20.354;2022-09-12T04:03:50;17.48;;;15.52;;
54657;SDS011;56972;43.886;20.354;2022-09-12T04:06:17;16.65;;;12.95;;
54657;SDS011;56972;43.886;20.354;2022-09-12T04:08:46;15.80;;;13.27;;
54657;SDS011;56972;43.886;20.354;2022-09-12T04:11:13;18.48;;;13.65;;
54657;SDS011;56972;43.886;20.354;2022-09-12T04:13:40;19.20;;;13.25;;
54657;SDS011;56972;43.886;20.354;2022-09-12T04:16:07;16.48;;;13.70;;
54657;SDS011;56972;43.886;20.354;2022-09-12T04:18:33;15.90;;;12.95;;
54657;SDS011;56972;43.886;20.354;2022-09-12T04:21:03;15.82;;;13.23;;
54657;SDS011;56972;43.886;20.354;2022-09-12T04:23:29;70.90;;;53.08;;
54657;SDS011;56972;43.886;20.354;2022-09-12T04:25:56;19.38;;;14.93;;
54657;SDS011;56972;43.886;20.354;2022-09-12T04:28:23;16.05;;;12.90;;
54657;SDS011;56972;43.886;20.354;2022-09-12T04:30:49;16.58;;;12.68;;
54657;SDS011;56972;43.886;20.354;2022-09-12T04:33:16;20.02;;;13.50;;
54657;SDS011;56972;43.886;20.354;2022-09-12T04:35:42;17.88;;;13.30;;
54657;SDS011;56972;43.886;20.354;2022-09-12T04:38:09;15.00;;;12.30;;
54657;SDS011;56972;43.886;20.354;2022-09-12T04:40:35;15.05;;;11.52;;
54657;SDS011;56972;43.886;20.354;2022-09-12T04:43:02;14.35;;;11.52;;
54657;SDS011;56972;43.886;20.354;2022-09-12T04:45:28;12.63;;;11.27;;
54657;SDS011;56972;43.886;20.354;2022-09-12T04:47:54;14.40;;;11.82;;
54657;SDS011;56972;43.886;20.354;2022-09-12T04:50:20;13.07;;;10.77;;
54657;SDS011;56972;43.886;20.354;2022-09-12T04:52:50;14.40;;;11.68;;
54657;SDS011;56972;43.886;20.354;2022-09-12T04:55:17;12.77;;;10.48;;
54657;SDS011;56972;43.886;20.354;2022-09-12T04:57:43;11.23;;;9.90;;
54657;SDS011;56972;43.886;20.354;2022-09-12T05:00:09;9.15;;;8.13;;
54657;SDS011;56972;43.886;20.354;2022-09-12T05:02:37;11.73;;;8.43;;
54657;SDS011;56972;43.886;20.354;2022-09-12T05:05:03;9.02;;;7.70;;
54657;SDS011;56972;43.886;20.354;2022-09-12T05:07:29;12.85;;;7.97;;
54657;SDS011;56972;43.886;20.354;2022-09-12T05:09:56;11.20;;;8.25;;
54657;SDS011;56972;43.886;20.354;2022-09-12T05:12:22;16.77;;;8.75;;
54657;SDS011;56972;43.886;20.354;2022-09-12T05:14:48;14.63;;;6.97;;
54657;SDS011;56972;43.886;20.354;2022-09-12T05:17:14;10.70;;;7.45;;
54657;SDS011;56972;43.886;20.354;2022-09-12T05:19:40;12.48;;;8.45;;
54657;SDS011;56972;43.886;20.354;2022-09-12T05:22:06;9.70;;;8.00;;
54657;SDS011;56972;43.886;20.354;2022-09-12T05:24:33;10.80;;;7.68;;
54657;SDS011;56972;43.886;20.354;2022-09-12T05:26:59;24.65;;;21.27;;
54657;SDS011;56972;43.886;20.354;2022-09-12T05:29:28;11.93;;;9.23;;
54657;SDS011;56972;43.886;20.354;2022-09-12T05:31:54;12.15;;;10.93;;
54657;SDS011;56972;43.886;20.354;2022-09-12T05:34:21;11.93;;;9.60;;
54657;SDS011;56972;43.886;20.354;2022-09-12T05:36:47;12.60;;;9.77;;
54657;SDS011;56972;43.886;20.354;2022-09-12T05:39:13;11.38;;;9.20;;
54657;SDS011;56972;43.886;20.354;2022-09-12T05:41:39;17.40;;;9.25;;
54657;SDS011;56972;43.886;20.354;2022-09-12T05:44:09;16.20;;;8.15;;
54657;SDS011;56972;43.886;20.354;2022-09-12T05:46:36;11.05;;;7.57;;
54657;SDS011;56972;43.886;20.354;2022-09-12T05:49:10;12.13;;;7.50;;
54657;SDS011;56972;43.886;20.354;2022-09-12T05:51:37;13.50;;;7.50;;
54657;SDS011;56972;43.886;20.354;2022-09-12T05:54:05;24.92;;;7.65;;
54657;SDS011;56972;43.886;20.354;2022-09-12T05:56:33;10.27;;;7.82;;
54657;SDS011;56972;43.886;20.354;2022-09-12T05:59:01;15.38;;;9.05;;
54657;SDS011;56972;43.886;20.354;2022-09-12T06:01:28;15.00;;;11.75;;
54657;SDS011;56972;43.886;20.354;2022-09-12T06:03:55;8.18;;;6.80;;
54657;SDS011;56972;43.886;20.354;2022-09-12T06:06:22;12.43;;;8.95;;
54657;SDS011;56972;43.886;20.354;2022-09-12T06:08:50;8.98;;;7.43;;
54657;SDS011;56972;43.886;20.354;2022-09-12T06:11:17;15.07;;;10.50;;
54657;SDS011;56972;43.886;20.354;2022-09-12T06:13:44;18.17;;;10.90;;
54657;SDS011;56972;43.886;20.354;2022-09-12T06:16:11;12.07;;;9.65;;
54657;SDS011;56972;43.886;20.354;2022-09-12T06:18:38;9.20;;;7.90;;
54657;SDS011;56972;43.886;20.354;2022-09-12T06:21:06;11.13;;;6.40;;
54657;SDS011;56972;43.886;20.354;2022-09-12T06:23:32;11.90;;;6.30;;
54657;SDS011;56972;43.886;20.354;2022-09-12T06:25:59;14.32;;;8.02;;
54657;SDS011;56972;43.886;20.354;2022-09-12T06:28:25;12.43;;;6.13;;
54657;SDS011;56972;43.886;20.354;2022-09-12T06:30:52;11.80;;;5.95;;
54657;SDS011;56972;43.886;20.354;2022-09-12T06:33:18;7.05;;;4.82;;
54657;SDS011;56972;43.886;20.354;2022-09-12T06:35:44;7.78;;;4.15;;
54657;SDS011;56972;43.886;20.354;2022-09-12T06:38:10;6.55;;;2.53;;
54657;SDS011;56972;43.886;20.354;2022-09-12T06:40:41;8.70;;;3.50;;
54657;SDS011;56972;43.886;20.354;2022-09-12T06:45:37;8.23;;;4.55;;
54657;SDS011;56972;43.886;20.354;2022-09-12T06:48:05;6.45;;;4.63;;
54657;SDS011;56972;43.886;20.354;2022-09-12T06:50:31;5.70;;;3.60;;
54657;SDS011;56972;43.886;20.354;2022-09-12T06:52:57;7.53;;;4.97;;
54657;SDS011;56972;43.886;20.354;2022-09-12T06:55:23;6.40;;;4.40;;
54657;SDS011;56972;43.886;20.354;2022-09-12T06:57:50;8.73;;;4.47;;
54657;SDS011;56972;43.886;20.354;2022-09-12T07:00:16;7.57;;;4.40;;
54657;SDS011;56972;43.886;20.354;2022-09-12T07:02:42;14.63;;;4.90;;
54657;SDS011;56972;43.886;20.354;2022-09-12T07:05:08;16.98;;;5.43;;
54657;SDS011;56972;43.886;20.354;2022-09-12T07:07:35;6.20;;;4.03;;
54657;SDS011;56972;43.886;20.354;2022-09-12T07:10:02;4.15;;;2.72;;
54657;SDS011;56972;43.886;20.354;2022-09-12T07:12:28;16.23;;;5.05;;
54657;SDS011;56972;43.886;20.354;2022-09-12T07:14:54;7.82;;;4.63;;
54657;SDS011;56972;43.886;20.354;2022-09-12T07:17:20;6.35;;;4.47;;
54657;SDS011;56972;43.886;20.354;2022-09-12T07:19:46;10.60;;;4.47;;
54657;SDS011;56972;43.886;20.354;2022-09-12T07:22:12;6.32;;;4.13;;
54657;SDS011;56972;43.886;20.354;2022-09-12T07:24:38;8.68;;;5.07;;
54657;SDS011;56972;43.886;20.354;2022-09-12T07:27:05;5.38;;;3.83;;
54657;SDS011;56972;43.886;20.354;2022-09-12T07:29:31;5.47;;;4.15;;
54657;SDS011;56972;43.886;20.354;2022-09-12T07:31:57;10.00;;;3.70;;
54657;SDS011;56972;43.886;20.354;2022-09-12T07:34:25;7.60;;;4.70;;
54657;SDS011;56972;43.886;20.354;2022-09-12T07:36:51;12.18;;;3.83;;
54657;SDS011;56972;43.886;20.354;2022-09-12T07:39:17;4.65;;;3.72;;
54657;SDS011;56972;43.886;20.354;2022-09-12T07:41:44;6.07;;;4.15;;
54657;SDS011;56972;43.886;20.354;2022-09-12T07:44:10;6.97;;;3.55;;
54657;SDS011;56972;43.886;20.354;2022-09-12T07:46:36;6.03;;;3.55;;
54657;SDS011;56972;43.886;20.354;2022-09-12T07:49:03;5.78;;;3.15;;
54657;SDS011;56972;43.886;20.354;2022-09-12T07:51:30;4.50;;;3.05;;
54657;SDS011;56972;43.886;20.354;2022-09-12T07:53:56;5.22;;;3.17;;
54657;SDS011;56972;43.886;20.354;2022-09-12T07:56:23;8.48;;;4.00;;
54657;SDS011;56972;43.886;20.354;2022-09-12T07:58:50;10.38;;;5.75;;
54657;SDS011;56972;43.886;20.354;2022-09-12T08:01:17;15.13;;;4.30;;
54657;SDS011;56972;43.886;20.354;2022-09-12T08:03:44;4.40;;;3.60;;
54657;SDS011;56972;43.886;20.354;2022-09-12T08:06:11;4.78;;;3.92;;
54657;SDS011;56972;43.886;20.354;2022-09-12T08:08:38;5.80;;;3.90;;
54657;SDS011;56972;43.886;20.354;2022-09-12T08:11:05;5.75;;;4.43;;
54657;SDS011;56972;43.886;20.354;2022-09-12T08:13:32;6.50;;;4.93;;
54657;SDS011;56972;43.886;20.354;2022-09-12T08:15:59;6.18;;;4.82;;
54657;SDS011;56972;43.886;20.354;2022-09-12T08:18:26;6.18;;;4.60;;
54657;SDS011;56972;43.886;20.354;2022-09-12T08:20:56;4.95;;;3.88;;
54657;SDS011;56972;43.886;20.354;2022-09-12T08:23:22;8.18;;;4.60;;
54657;SDS011;56972;43.886;20.354;2022-09-12T08:25:49;6.35;;;3.78;;
54657;SDS011;56972;43.886;20.354;2022-09-12T08:28:15;8.50;;;5.03;;
54657;SDS011;56972;43.886;20.354;2022-09-12T08:30:41;7.68;;;6.28;;
54657;SDS011;56972;43.886;20.354;2022-09-12T08:33:07;8.70;;;5.60;;
54657;SDS011;56972;43.886;20.354;2022-09-12T08:35:33;4.88;;;4.10;;
54657;SDS011;56972;43.886;20.354;2022-09-12T08:37:59;6.50;;;5.57;;
54657;SDS011;56972;43.886;20.354;2022-09-12T08:40:25;7.90;;;4.50;;
54657;SDS011;56972;43.886;20.354;2022-09-12T08:43:00;4.70;;;3.60;;
54657;SDS011;56972;43.886;20.354;2022-09-12T08:45:30;12.13;;;4.15;;
54657;SDS011;56972;43.886;20.354;2022-09-12T08:48:00;4.80;;;3.33;;
54657;SDS011;56972;43.886;20.354;2022-09-12T08:50:27;5.30;;;3.42;;
54657;SDS011;56972;43.886;20.354;2022-09-12T08:53:13;6.57;;;4.50;;
54657;SDS011;56972;43.886;20.354;2022-09-12T08:55:42;6.50;;;3.72;;
54657;SDS011;56972;43.886;20.354;2022-09-12T08:58:16;4.22;;;3.75;;
54657;SDS011;56972;43.886;20.354;2022-09-12T09:08:34;7.15;;;4.60;;
54657;SDS011;56972;43.886;20.354;2022-09-12T09:11:12;8.23;;;5.13;;
54657;SDS011;56972;43.886;20.354;2022-09-12T09:17:00;6.93;;;5.88;;
54657;SDS011;56972;43.886;20.354;2022-09-12T09:19:30;7.07;;;5.22;;
54657;SDS011;56972;43.886;20.354;2022-09-12T09:22:00;7.07;;;5.90;;
54657;SDS011;56972;43.886;20.354;2022-09-12T09:24:50;4.90;;;4.03;;
54657;SDS011;56972;43.886;20.354;2022-09-12T09:29:48;11.35;;;5.18;;
54657;SDS011;56972;43.886;20.354;2022-09-12T09:32:17;5.70;;;3.88;;
54657;SDS011;56972;43.886;20.354;2022-09-12T09:34:43;5.03;;;3.90;;
54657;SDS011;56972;43.886;20.354;2022-09-12T09:39:48;4.28;;;3.50;;
54657;SDS011;56972;43.886;20.354;2022-09-12T09:42:24;8.73;;;4.50;;
54657;SDS011;56972;43.886;20.354;2022-09-12T09:44:52;5.22;;;4.32;;
54657;SDS011;56972;43.886;20.354;2022-09-12T09:47:20;5.35;;;3.58;;
54657;SDS011;56972;43.886;20.354;2022-09-12T09:49:46;5.63;;;3.90;;
54657;SDS011;56972;43.886;20.354;2022-09-12T09:52:14;5.07;;;3.03;;
54657;SDS011;56972;43.886;20.354;2022-09-12T09:59:54;18.73;;;8.77;;
54657;SDS011;56972;43.886;20.354;2022-09-12T10:02:20;5.95;;;3.55;;
54657;SDS011;56972;43.886;20.354;2022-09-12T10:04:54;5.72;;;4.28;;
54657;SDS011;56972;43.886;20.354;2022-09-12T10:07:21;7.35;;;4.40;;
54657;SDS011;56972;43.886;20.354;2022-09-12T10:12:33;7.78;;;3.78;;
54657;SDS011;56972;43.886;20.354;2022-09-12T10:15:04;5.18;;;2.83;;
54657;SDS011;56972;43.886;20.354;2022-09-12T10:17:42;4.57;;;3.57;;
54657;SDS011;56972;43.886;20.354;2022-09-12T10:20:52;4.70;;;3.28;;
54657;SDS011;56972;43.886;20.354;2022-09-12T10:23:00;4.97;;;2.42;;
54657;SDS011;56972;43.886;20.354;2022-09-12T10:25:26;8.00;;;4.05;;
54657;SDS011;56972;43.886;20.354;2022-09-12T10:27:56;5.20;;;3.40;;
54657;SDS011;56972;43.886;20.354;2022-09-12T10:30:23;4.43;;;3.47;;
54657;SDS011;56972;43.886;20.354;2022-09-12T10:32:52;6.15;;;5.15;;
54657;SDS011;56972;43.886;20.354;2022-09-12T10:37:52;10.65;;;5.25;;
54657;SDS011;56972;43.886;20.354;2022-09-12T10:40:20;11.32;;;8.10;;
54657;SDS011;56972;43.886;20.354;2022-09-12T10:42:55;6.65;;;3.80;;
54657;SDS011;56972;43.886;20.354;2022-09-12T10:45:29;7.55;;;3.78;;
54657;SDS011;56972;43.886;20.354;2022-09-12T10:47:57;4.82;;;3.28;;
54657;SDS011;56972;43.886;20.354;2022-09-12T10:50:25;3.58;;;2.78;;
54657;SDS011;56972;43.886;20.354;2022-09-12T10:52:52;3.60;;;2.40;;
54657;SDS011;56972;43.886;20.354;2022-09-12T10:55:20;8.52;;;6.25;;
54657;SDS011;56972;43.886;20.354;2022-09-12T10:58:10;7.70;;;3.17;;
54657;SDS011;56972;43.886;20.354;2022-09-12T11:00:39;7.90;;;5.32;;
54657;SDS011;56972;43.886;20.354;2022-09-12T11:03:28;3.92;;;2.88;;
54657;SDS011;56972;43.886;20.354;2022-09-12T11:05:58;5.32;;;3.55;;
54657;SDS011;56972;43.886;20.354;2022-09-12T11:08:35;6.60;;;4.13;;
54657;SDS011;56972;43.886;20.354;2022-09-12T11:42:46;5.40;;;3.20;;
54657;SDS011;56972;43.886;20.354;2022-09-12T11:45:15;2.88;;;1.70;;
54657;SDS011;56972;43.886;20.354;2022-09-12T11:47:43;4.80;;;2.65;;
54657;SDS011;56972;43.886;20.354;2022-09-12T11:50:18;3.75;;;2.72;;
54657;SDS011;56972;43.886;20.354;2022-09-12T11:52:45;3.80;;;2.28;;
54657;SDS011;56972;43.886;20.354;2022-09-12T11:55:18;3.05;;;2.13;;
54657;SDS011;56972;43.886;20.354;2022-09-12T11:57:52;3.45;;;2.30;;
54657;SDS011;56972;43.886;20.354;2022-09-12T12:08:00;2.70;;;1.55;;
54657;SDS011;56972;43.886;20.354;2022-09-12T12:13:02;4.28;;;1.75;;
54657;SDS011;56972;43.886;20.354;2022-09-12T12:15:29;2.58;;;1.67;;
54657;SDS011;56972;43.886;20.354;2022-09-12T12:18:00;3.28;;;2.45;;
54657;SDS011;56972;43.886;20.354;2022-09-12T12:20:26;5.03;;;2.53;;
54657;SDS011;56972;43.886;20.354;2022-09-12T12:22:53;3.35;;;2.15;;
54657;SDS011;56972;43.886;20.354;2022-09-12T12:37:58;3.03;;;1.65;;
54657;SDS011;56972;43.886;20.354;2022-09-12T12:40:25;3.40;;;2.38;;
54657;SDS011;56972;43.886;20.354;2022-09-12T12:43:01;5.07;;;2.97;;
54657;SDS011;56972;43.886;20.354;2022-09-12T12:47:55;6.20;;;2.92;;
54657;SDS011;56972;43.886;20.354;2022-09-12T12:50:23;5.47;;;3.40;;
54657;SDS011;56972;43.886;20.354;2022-09-12T12:55:23;4.55;;;2.53;;
54657;SDS011;56972;43.886;20.354;2022-09-12T12:57:59;5.45;;;2.03;;
54657;SDS011;56972;43.886;20.354;2022-09-12T13:00:28;4.15;;;2.83;;
54657;SDS011;56972;43.886;20.354;2022-09-12T13:05:23;4.57;;;2.80;;
54657;SDS011;56972;43.886;20.354;2022-09-12T13:07:54;3.70;;;2.50;;
54657;SDS011;56972;43.886;20.354;2022-09-12T13:10:22;4.40;;;2.38;;
54657;SDS011;56972;43.886;20.354;2022-09-12T13:12:49;6.22;;;2.50;;
54657;SDS011;56972;43.886;20.354;2022-09-12T13:17:56;5.00;;;2.85;;
54657;SDS011;56972;43.886;20.354;2022-09-12T13:20:25;6.53;;;3.40;;
54657;SDS011;56972;43.886;20.354;2022-09-12T13:22:53;3.42;;;2.55;;
54657;SDS011;56972;43.886;20.354;2022-09-12T13:25:25;5.47;;;3.85;;
54657;SDS011;56972;43.886;20.354;2022-09-12T13:30:23;3.90;;;2.53;;
54657;SDS011;56972;43.886;20.354;2022-09-12T13:32:49;4.32;;;2.38;;
54657;SDS011;56972;43.886;20.354;2022-09-12T13:35:25;5.32;;;2.53;;
54657;SDS011;56972;43.886;20.354;2022-09-12T13:37:57;3.45;;;1.85;;
54657;SDS011;56972;43.886;20.354;2022-09-12T13:40:32;4.03;;;2.20;;
54657;SDS011;56972;43.886;20.354;2022-09-12T13:45:36;6.53;;;2.97;;
54657;SDS011;56972;43.886;20.354;2022-09-12T13:48:07;11.25;;;7.80;;
54657;SDS011;56972;43.886;20.354;2022-09-12T13:50:38;5.07;;;2.60;;
54657;SDS011;56972;43.886;20.354;2022-09-12T13:53:15;4.45;;;2.35;;
54657;SDS011;56972;43.886;20.354;2022-09-12T13:55:43;7.60;;;6.18;;
54657;SDS011;56972;43.886;20.354;2022-09-12T13:58:19;6.50;;;4.80;;
54657;SDS011;56972;43.886;20.354;2022-09-12T14:00:45;4.88;;;3.63;;
54657;SDS011;56972;43.886;20.354;2022-09-12T14:03:24;11.43;;;4.97;;
54657;SDS011;56972;43.886;20.354;2022-09-12T14:06:09;7.20;;;3.75;;
54657;SDS011;56972;43.886;20.354;2022-09-12T14:08:39;7.28;;;4.35;;
54657;SDS011;56972;43.886;20.354;2022-09-12T14:11:07;6.90;;;5.05;;
54657;SDS011;56972;43.886;20.354;2022-09-12T14:13:35;11.63;;;7.38;;
54657;SDS011;56972;43.886;20.354;2022-09-12T14:16:02;7.53;;;4.45;;
54657;SDS011;56972;43.886;20.354;2022-09-12T14:18:33;7.55;;;4.97;;
54657;SDS011;56972;43.886;20.354;2022-09-12T14:23:34;6.55;;;4.22;;
54657;SDS011;56972;43.886;20.354;2022-09-12T14:26:03;6.18;;;3.80;;
54657;SDS011;56972;43.886;20.354;2022-09-12T14:28:33;5.90;;;3.70;;
54657;SDS011;56972;43.886;20.354;2022-09-12T14:31:05;5.13;;;3.88;;
54657;SDS011;56972;43.886;20.354;2022-09-12T14:33:32;10.27;;;4.07;;
54657;SDS011;56972;43.886;20.354;2022-09-12T14:36:09;13.82;;;6.65;;
54657;SDS011;56972;43.886;20.354;2022-09-12T14:38:38;11.13;;;4.82;;
54657;SDS011;56972;43.886;20.354;2022-09-12T14:41:07;5.18;;;3.97;;
54657;SDS011;56972;43.886;20.354;2022-09-12T14:43:34;10.00;;;3.30;;
54657;SDS011;56972;43.886;20.354;2022-09-12T14:48:42;3.80;;;2.40;;
54657;SDS011;56972;43.886;20.354;2022-09-12T14:51:15;4.30;;;3.50;;
54657;SDS011;56972;43.886;20.354;2022-09-12T14:53:46;5.95;;;4.15;;
54657;SDS011;56972;43.886;20.354;2022-09-12T14:56:12;5.72;;;3.50;;
54657;SDS011;56972;43.886;20.354;2022-09-12T14:58:39;7.32;;;4.53;;
54657;SDS011;56972;43.886;20.354;2022-09-12T15:03:50;4.65;;;2.90;;
54657;SDS011;56972;43.886;20.354;2022-09-12T15:06:30;5.13;;;2.78;;
54657;SDS011;56972;43.886;20.354;2022-09-12T15:09:05;5.30;;;3.78;;
54657;SDS011;56972;43.886;20.354;2022-09-12T15:11:31;5.05;;;3.08;;
54657;SDS011;56972;43.886;20.354;2022-09-12T15:13:57;4.20;;;2.92;;
54657;SDS011;56972;43.886;20.354;2022-09-12T15:16:24;14.13;;;7.95;;
54657;SDS011;56972;43.886;20.354;2022-09-12T15:18:51;19.55;;;10.98;;
54657;SDS011;56972;43.886;20.354;2022-09-12T15:21:18;7.65;;;4.32;;
54657;SDS011;56972;43.886;20.354;2022-09-12T15:23:48;7.95;;;5.43;;
54657;SDS011;56972;43.886;20.354;2022-09-12T15:26:16;8.95;;;5.00;;
54657;SDS011;56972;43.886;20.354;2022-09-12T15:28:43;8.02;;;5.30;;
54657;SDS011;56972;43.886;20.354;2022-09-12T15:31:21;10.00;;;6.03;;
54657;SDS011;56972;43.886;20.354;2022-09-12T15:33:48;10.30;;;6.45;;
54657;SDS011;56972;43.886;20.354;2022-09-12T15:36:15;11.52;;;7.45;;
54657;SDS011;56972;43.886;20.354;2022-09-12T15:38:41;11.25;;;4.28;;
54657;SDS011;56972;43.886;20.354;2022-09-12T15:41:09;5.60;;;3.85;;
54657;SDS011;56972;43.886;20.354;2022-09-12T15:43:35;13.80;;;8.77;;
54657;SDS011;56972;43.886;20.354;2022-09-12T15:46:01;9.95;;;5.00;;
54657;SDS011;56972;43.886;20.354;2022-09-12T15:48:30;9.43;;;5.35;;
54657;SDS011;56972;43.886;20.354;2022-09-12T15:50:57;4.50;;;2.75;;
54657;SDS011;56972;43.886;20.354;2022-09-12T15:53:25;3.97;;;2.70;;
54657;SDS011;56972;43.886;20.354;2022-09-12T15:55:52;4.10;;;3.10;;
54657;SDS011;56972;43.886;20.354;2022-09-12T15:58:18;6.97;;;3.22;;
54657;SDS011;56972;43.886;20.354;2022-09-12T16:00:44;8.13;;;2.85;;
54657;SDS011;56972;43.886;20.354;2022-09-12T16:03:15;4.50;;;2.92;;
54657;SDS011;56972;43.886;20.354;2022-09-12T16:05:42;6.32;;;4.13;;
54657;SDS011;56972;43.886;20.354;2022-09-12T16:08:08;7.35;;;3.38;;
54657;SDS011;56972;43.886;20.354;2022-09-12T16:10:34;7.80;;;3.85;;
54657;SDS011;56972;43.886;20.354;2022-09-12T16:13:00;8.68;;;4.28;;
54657;SDS011;56972;43.886;20.354;2022-09-12T16:15:28;8.93;;;3.72;;
54657;SDS011;56972;43.886;20.354;2022-09-12T16:17:54;6.43;;;4.55;;
54657;SDS011;56972;43.886;20.354;2022-09-12T16:20:20;6.35;;;3.47;;
54657;SDS011;56972;43.886;20.354;2022-09-12T16:22:48;10.90;;;4.53;;
54657;SDS011;56972;43.886;20.354;2022-09-12T16:25:14;7.28;;;4.38;;
54657;SDS011;56972;43.886;20.354;2022-09-12T16:27:41;7.53;;;4.10;;
54657;SDS011;56972;43.886;20.354;2022-09-12T16:30:07;8.20;;;4.28;;
54657;SDS011;56972;43.886;20.354;2022-09-12T16:32:33;9.48;;;4.82;;
54657;SDS011;56972;43.886;20.354;2022-09-12T16:34:59;11.68;;;5.95;;
54657;SDS011;56972;43.886;20.354;2022-09-12T16:37:26;7.78;;;4.95;;
54657;SDS011;56972;43.886;20.354;2022-09-12T16:39:52;7.93;;;4.90;;
54657;SDS011;56972;43.886;20.354;2022-09-12T16:42:18;12.05;;;5.95;;
54657;SDS011;56972;43.886;20.354;2022-09-12T16:44:45;7.75;;;5.05;;
54657;SDS011;56972;43.886;20.354;2022-09-12T16:47:11;9.18;;;5.90;;
54657;SDS011;56972;43.886;20.354;2022-09-12T16:49:37;7.35;;;4.72;;
54657;SDS011;56972;43.886;20.354;2022-09-12T16:52:03;13.93;;;4.80;;
54657;SDS011;56972;43.886;20.354;2022-09-12T16:54:29;6.70;;;4.75;;